sensor_id;sensor_type;location;lat;lon;timestamp;P1;durP1;ratioP1;P2;durP2;ratioP2
42832;SDS011;64089;51.478;5.692;2024-02-14T00:02:07;5.22;;;1.40;;
42832;SDS011;64089;51.478;5.692;2024-02-14T00:04:32;2.92;;;1.60;;
42832;SDS011;64089;51.478;5.692;2024-02-14T00:06:58;3.65;;;1.80;;
42832;SDS011;64089;51.478;5.692;2024-02-14T00:09:24;2.38;;;1.75;;
42832;SDS011;64089;51.478;5.692;2024-02-14T00:11:50;2.28;;;1.63;;
42832;SDS011;64089;51.478;5.692;2024-02-14T00:14:15;2.20;;;1.60;;
42832;SDS011;64089;51.478;5.692;2024-02-14T00:16:41;2.80;;;1.70;;
42832;SDS011;64089;51.478;5.692;2024-02-14T00:19:07;4.18;;;2.20;;
42832;SDS011;64089;51.478;5.692;2024-02-14T00:21:32;3.15;;;2.03;;
42832;SDS011;64089;51.478;5.692;2024-02-14T00:23:59;3.13;;;1.80;;
42832;SDS011;64089;51.478;5.692;2024-02-14T00:26:26;4.25;;;2.40;;
42832;SDS011;64089;51.478;5.692;2024-02-14T00:28:52;2.55;;;1.50;;
42832;SDS011;64089;51.478;5.692;2024-02-14T00:31:18;2.53;;;1.80;;
42832;SDS011;64089;51.478;5.692;2024-02-14T00:33:43;3.28;;;2.03;;
42832;SDS011;64089;51.478;5.692;2024-02-14T00:36:11;2.95;;;1.95;;
42832;SDS011;64089;51.478;5.692;2024-02-14T00:38:37;7.85;;;1.63;;
42832;SDS011;64089;51.478;5.692;2024-02-14T00:41:02;3.28;;;1.73;;
42832;SDS011;64089;51.478;5.692;2024-02-14T00:43:28;2.67;;;1.77;;
42832;SDS011;64089;51.478;5.692;2024-02-14T00:45:54;3.47;;;1.88;;
42832;SDS011;64089;51.478;5.692;2024-02-14T00:48:21;3.13;;;2.03;;
42832;SDS011;64089;51.478;5.692;2024-02-14T00:50:47;3.90;;;2.13;;
42832;SDS011;64089;51.478;5.692;2024-02-14T00:53:13;4.68;;;2.50;;
42832;SDS011;64089;51.478;5.692;2024-02-14T00:55:39;4.82;;;2.35;;
42832;SDS011;64089;51.478;5.692;2024-02-14T00:58:05;4.40;;;2.53;;
42832;SDS011;64089;51.478;5.692;2024-02-14T01:00:30;7.03;;;2.70;;
42832;SDS011;64089;51.478;5.692;2024-02-14T01:02:59;3.95;;;1.80;;
42832;SDS011;64089;51.478;5.692;2024-02-14T01:05:24;2.47;;;2.15;;
42832;SDS011;64089;51.478;5.692;2024-02-14T01:07:50;3.72;;;2.63;;
42832;SDS011;64089;51.478;5.692;2024-02-14T01:10:16;3.38;;;2.28;;
42832;SDS011;64089;51.478;5.692;2024-02-14T01:12:43;3.53;;;1.95;;
42832;SDS011;64089;51.478;5.692;2024-02-14T01:15:09;2.80;;;2.00;;
42832;SDS011;64089;51.478;5.692;2024-02-14T01:17:34;5.18;;;2.47;;
42832;SDS011;64089;51.478;5.692;2024-02-14T01:20:01;7.93;;;1.98;;
42832;SDS011;64089;51.478;5.692;2024-02-14T01:22:27;3.28;;;2.05;;
42832;SDS011;64089;51.478;5.692;2024-02-14T01:24:53;4.55;;;2.30;;
42832;SDS011;64089;51.478;5.692;2024-02-14T01:27:19;5.63;;;2.53;;
42832;SDS011;64089;51.478;5.692;2024-02-14T01:29:47;5.53;;;2.42;;
42832;SDS011;64089;51.478;5.692;2024-02-14T01:32:13;5.72;;;2.05;;
42832;SDS011;64089;51.478;5.692;2024-02-14T01:34:39;3.70;;;2.17;;
42832;SDS011;64089;51.478;5.692;2024-02-14T01:37:04;3.08;;;2.20;;
42832;SDS011;64089;51.478;5.692;2024-02-14T01:39:31;4.25;;;2.50;;
42832;SDS011;64089;51.478;5.692;2024-02-14T01:41:56;1.88;;;1.45;;
42832;SDS011;64089;51.478;5.692;2024-02-14T01:44:22;3.28;;;2.10;;
42832;SDS011;64089;51.478;5.692;2024-02-14T01:46:48;8.20;;;2.67;;
42832;SDS011;64089;51.478;5.692;2024-02-14T01:49:13;4.22;;;1.95;;
42832;SDS011;64089;51.478;5.692;2024-02-14T01:51:41;3.17;;;2.28;;
42832;SDS011;64089;51.478;5.692;2024-02-14T01:54:10;4.80;;;2.35;;
42832;SDS011;64089;51.478;5.692;2024-02-14T01:56:37;5.05;;;2.28;;
42832;SDS011;64089;51.478;5.692;2024-02-14T01:59:04;6.90;;;3.08;;
42832;SDS011;64089;51.478;5.692;2024-02-14T02:01:31;3.22;;;1.92;;
42832;SDS011;64089;51.478;5.692;2024-02-14T02:03:58;6.70;;;1.83;;
42832;SDS011;64089;51.478;5.692;2024-02-14T02:06:24;7.55;;;1.92;;
42832;SDS011;64089;51.478;5.692;2024-02-14T02:08:51;3.10;;;2.15;;
42832;SDS011;64089;51.478;5.692;2024-02-14T02:11:17;3.50;;;2.03;;
42832;SDS011;64089;51.478;5.692;2024-02-14T02:13:43;7.93;;;2.33;;
42832;SDS011;64089;51.478;5.692;2024-02-14T02:16:09;6.10;;;2.60;;
42832;SDS011;64089;51.478;5.692;2024-02-14T02:18:35;4.88;;;2.60;;
42832;SDS011;64089;51.478;5.692;2024-02-14T02:21:02;3.40;;;2.00;;
42832;SDS011;64089;51.478;5.692;2024-02-14T02:23:31;8.30;;;2.17;;
42832;SDS011;64089;51.478;5.692;2024-02-14T02:26:00;4.10;;;2.25;;
42832;SDS011;64089;51.478;5.692;2024-02-14T02:28:27;4.57;;;2.03;;
42832;SDS011;64089;51.478;5.692;2024-02-14T02:30:52;3.33;;;1.90;;
42832;SDS011;64089;51.478;5.692;2024-02-14T02:33:20;2.88;;;1.75;;
42832;SDS011;64089;51.478;5.692;2024-02-14T02:35:46;3.47;;;2.42;;
42832;SDS011;64089;51.478;5.692;2024-02-14T02:38:14;4.82;;;2.80;;
42832;SDS011;64089;51.478;5.692;2024-02-14T02:40:41;4.75;;;2.15;;
42832;SDS011;64089;51.478;5.692;2024-02-14T02:43:07;4.25;;;2.35;;
42832;SDS011;64089;51.478;5.692;2024-02-14T02:45:33;3.28;;;2.35;;
42832;SDS011;64089;51.478;5.692;2024-02-14T02:47:59;5.63;;;2.55;;
42832;SDS011;64089;51.478;5.692;2024-02-14T02:50:26;5.72;;;2.47;;
42832;SDS011;64089;51.478;5.692;2024-02-14T02:52:52;5.13;;;2.53;;
42832;SDS011;64089;51.478;5.692;2024-02-14T02:55:17;2.47;;;1.83;;
42832;SDS011;64089;51.478;5.692;2024-02-14T02:57:43;3.63;;;2.10;;
42832;SDS011;64089;51.478;5.692;2024-02-14T03:00:10;4.30;;;2.38;;
42832;SDS011;64089;51.478;5.692;2024-02-14T03:02:39;3.50;;;2.40;;
42832;SDS011;64089;51.478;5.692;2024-02-14T03:05:11;6.72;;;2.58;;
42832;SDS011;64089;51.478;5.692;2024-02-14T03:07:43;4.68;;;2.53;;
42832;SDS011;64089;51.478;5.692;2024-02-14T03:10:10;7.05;;;2.20;;
42832;SDS011;64089;51.478;5.692;2024-02-14T03:12:38;3.80;;;2.30;;
42832;SDS011;64089;51.478;5.692;2024-02-14T03:15:04;3.90;;;2.30;;
42832;SDS011;64089;51.478;5.692;2024-02-14T03:17:30;7.28;;;2.28;;
42832;SDS011;64089;51.478;5.692;2024-02-14T03:19:56;4.10;;;2.60;;
42832;SDS011;64089;51.478;5.692;2024-02-14T03:22:22;4.10;;;2.58;;
42832;SDS011;64089;51.478;5.692;2024-02-14T03:24:48;4.93;;;2.58;;
42832;SDS011;64089;51.478;5.692;2024-02-14T03:27:13;7.60;;;2.67;;
42832;SDS011;64089;51.478;5.692;2024-02-14T03:29:39;5.78;;;3.08;;
42832;SDS011;64089;51.478;5.692;2024-02-14T03:32:06;5.97;;;2.45;;
42832;SDS011;64089;51.478;5.692;2024-02-14T03:34:33;5.90;;;2.60;;
42832;SDS011;64089;51.478;5.692;2024-02-14T03:37:00;8.23;;;2.80;;
42832;SDS011;64089;51.478;5.692;2024-02-14T03:39:32;5.75;;;2.95;;
42832;SDS011;64089;51.478;5.692;2024-02-14T03:41:57;9.13;;;3.13;;
42832;SDS011;64089;51.478;5.692;2024-02-14T03:44:26;4.97;;;2.67;;
42832;SDS011;64089;51.478;5.692;2024-02-14T03:46:51;6.03;;;2.47;;
42832;SDS011;64089;51.478;5.692;2024-02-14T03:49:17;3.08;;;2.28;;
42832;SDS011;64089;51.478;5.692;2024-02-14T03:51:42;5.35;;;2.75;;
42832;SDS011;64089;51.478;5.692;2024-02-14T03:54:08;5.00;;;2.60;;
42832;SDS011;64089;51.478;5.692;2024-02-14T03:56:33;4.05;;;2.53;;
42832;SDS011;64089;51.478;5.692;2024-02-14T03:58:59;4.80;;;3.03;;
42832;SDS011;64089;51.478;5.692;2024-02-14T04:01:25;5.60;;;2.60;;
42832;SDS011;64089;51.478;5.692;2024-02-14T04:03:50;4.90;;;2.78;;
42832;SDS011;64089;51.478;5.692;2024-02-14T04:06:16;5.70;;;2.75;;
42832;SDS011;64089;51.478;5.692;2024-02-14T04:08:43;6.82;;;3.15;;
42832;SDS011;64089;51.478;5.692;2024-02-14T04:11:08;5.43;;;2.92;;
42832;SDS011;64089;51.478;5.692;2024-02-14T04:13:34;4.63;;;2.83;;
42832;SDS011;64089;51.478;5.692;2024-02-14T04:16:00;5.53;;;2.55;;
42832;SDS011;64089;51.478;5.692;2024-02-14T04:18:26;3.63;;;2.72;;
42832;SDS011;64089;51.478;5.692;2024-02-14T04:20:51;6.65;;;2.50;;
42832;SDS011;64089;51.478;5.692;2024-02-14T04:23:17;3.78;;;2.80;;
42832;SDS011;64089;51.478;5.692;2024-02-14T04:25:43;5.30;;;2.60;;
42832;SDS011;64089;51.478;5.692;2024-02-14T04:28:09;7.20;;;3.03;;
42832;SDS011;64089;51.478;5.692;2024-02-14T04:30:36;4.38;;;3.00;;
42832;SDS011;64089;51.478;5.692;2024-02-14T04:33:03;4.15;;;2.63;;
42832;SDS011;64089;51.478;5.692;2024-02-14T04:35:29;7.03;;;2.75;;
42832;SDS011;64089;51.478;5.692;2024-02-14T04:37:55;3.30;;;2.15;;
42832;SDS011;64089;51.478;5.692;2024-02-14T04:40:21;5.25;;;2.20;;
42832;SDS011;64089;51.478;5.692;2024-02-14T04:42:47;5.28;;;2.72;;
42832;SDS011;64089;51.478;5.692;2024-02-14T04:45:13;6.05;;;2.78;;
42832;SDS011;64089;51.478;5.692;2024-02-14T04:47:39;3.40;;;2.35;;
42832;SDS011;64089;51.478;5.692;2024-02-14T04:50:04;6.00;;;2.22;;
42832;SDS011;64089;51.478;5.692;2024-02-14T04:52:30;4.68;;;2.42;;
42832;SDS011;64089;51.478;5.692;2024-02-14T04:54:56;4.40;;;2.20;;
42832;SDS011;64089;51.478;5.692;2024-02-14T04:57:22;8.00;;;2.65;;
42832;SDS011;64089;51.478;5.692;2024-02-14T04:59:48;7.43;;;3.25;;
42832;SDS011;64089;51.478;5.692;2024-02-14T05:02:14;7.20;;;2.85;;
42832;SDS011;64089;51.478;5.692;2024-02-14T05:04:39;11.23;;;2.78;;
42832;SDS011;64089;51.478;5.692;2024-02-14T05:07:05;5.53;;;3.00;;
42832;SDS011;64089;51.478;5.692;2024-02-14T05:09:31;4.80;;;3.47;;
42832;SDS011;64089;51.478;5.692;2024-02-14T05:11:57;4.32;;;3.25;;
42832;SDS011;64089;51.478;5.692;2024-02-14T05:14:23;4.53;;;2.95;;
42832;SDS011;64089;51.478;5.692;2024-02-14T05:16:48;5.28;;;3.17;;
42832;SDS011;64089;51.478;5.692;2024-02-14T05:19:14;5.65;;;2.90;;
42832;SDS011;64089;51.478;5.692;2024-02-14T05:21:40;7.28;;;3.47;;
42832;SDS011;64089;51.478;5.692;2024-02-14T05:24:05;3.88;;;2.83;;
42832;SDS011;64089;51.478;5.692;2024-02-14T05:26:31;6.97;;;3.15;;
42832;SDS011;64089;51.478;5.692;2024-02-14T05:28:57;9.68;;;3.53;;
42832;SDS011;64089;51.478;5.692;2024-02-14T05:31:24;5.60;;;3.35;;
42832;SDS011;64089;51.478;5.692;2024-02-14T05:33:49;6.05;;;3.30;;
42832;SDS011;64089;51.478;5.692;2024-02-14T05:36:15;6.97;;;3.88;;
42832;SDS011;64089;51.478;5.692;2024-02-14T05:38:42;5.40;;;3.45;;
42832;SDS011;64089;51.478;5.692;2024-02-14T05:41:08;5.97;;;3.45;;
42832;SDS011;64089;51.478;5.692;2024-02-14T05:43:34;5.35;;;3.25;;
42832;SDS011;64089;51.478;5.692;2024-02-14T05:45:59;6.30;;;3.70;;
42832;SDS011;64089;51.478;5.692;2024-02-14T05:48:25;5.28;;;3.95;;
42832;SDS011;64089;51.478;5.692;2024-02-14T05:50:51;7.43;;;3.80;;
42832;SDS011;64089;51.478;5.692;2024-02-14T05:53:17;9.02;;;3.83;;
42832;SDS011;64089;51.478;5.692;2024-02-14T05:55:42;5.50;;;3.40;;
42832;SDS011;64089;51.478;5.692;2024-02-14T05:58:08;7.45;;;3.75;;
42832;SDS011;64089;51.478;5.692;2024-02-14T06:00:34;6.55;;;3.92;;
42832;SDS011;64089;51.478;5.692;2024-02-14T06:02:59;5.45;;;3.60;;
42832;SDS011;64089;51.478;5.692;2024-02-14T06:05:25;7.18;;;3.35;;
42832;SDS011;64089;51.478;5.692;2024-02-14T06:07:51;9.02;;;3.80;;
42832;SDS011;64089;51.478;5.692;2024-02-14T06:10:16;7.25;;;3.67;;
42832;SDS011;64089;51.478;5.692;2024-02-14T06:12:43;6.78;;;4.25;;
42832;SDS011;64089;51.478;5.692;2024-02-14T06:15:09;6.78;;;4.43;;
42832;SDS011;64089;51.478;5.692;2024-02-14T06:17:35;5.35;;;3.55;;
42832;SDS011;64089;51.478;5.692;2024-02-14T06:20:01;7.68;;;4.35;;
42832;SDS011;64089;51.478;5.692;2024-02-14T06:22:32;6.05;;;4.07;;
42832;SDS011;64089;51.478;5.692;2024-02-14T06:24:59;12.50;;;4.00;;
42832;SDS011;64089;51.478;5.692;2024-02-14T06:27:29;6.25;;;3.95;;
42832;SDS011;64089;51.478;5.692;2024-02-14T06:29:55;8.38;;;4.07;;
42832;SDS011;64089;51.478;5.692;2024-02-14T06:32:22;9.35;;;4.57;;
42832;SDS011;64089;51.478;5.692;2024-02-14T06:34:47;7.55;;;5.10;;
42832;SDS011;64089;51.478;5.692;2024-02-14T06:37:13;8.55;;;4.57;;
42832;SDS011;64089;51.478;5.692;2024-02-14T06:39:38;7.40;;;4.97;;
42832;SDS011;64089;51.478;5.692;2024-02-14T06:42:04;8.88;;;5.25;;
42832;SDS011;64089;51.478;5.692;2024-02-14T06:44:30;11.82;;;6.13;;
42832;SDS011;64089;51.478;5.692;2024-02-14T06:46:55;11.55;;;5.63;;
42832;SDS011;64089;51.478;5.692;2024-02-14T06:49:21;11.38;;;5.50;;
42832;SDS011;64089;51.478;5.692;2024-02-14T06:51:46;8.55;;;5.47;;
42832;SDS011;64089;51.478;5.692;2024-02-14T06:54:12;12.57;;;5.80;;
42832;SDS011;64089;51.478;5.692;2024-02-14T06:56:37;13.63;;;6.68;;
42832;SDS011;64089;51.478;5.692;2024-02-14T06:59:03;9.98;;;5.10;;
42832;SDS011;64089;51.478;5.692;2024-02-14T07:01:29;10.98;;;5.68;;
42832;SDS011;64089;51.478;5.692;2024-02-14T07:03:55;7.80;;;4.97;;
42832;SDS011;64089;51.478;5.692;2024-02-14T07:06:21;8.20;;;5.28;;
42832;SDS011;64089;51.478;5.692;2024-02-14T07:08:47;8.50;;;4.65;;
42832;SDS011;64089;51.478;5.692;2024-02-14T07:11:13;12.23;;;5.22;;
42832;SDS011;64089;51.478;5.692;2024-02-14T07:13:40;11.90;;;5.70;;
42832;SDS011;64089;51.478;5.692;2024-02-14T07:16:06;8.95;;;5.03;;
42832;SDS011;64089;51.478;5.692;2024-02-14T07:18:33;10.68;;;4.72;;
42832;SDS011;64089;51.478;5.692;2024-02-14T07:20:59;9.18;;;4.80;;
42832;SDS011;64089;51.478;5.692;2024-02-14T07:23:24;8.52;;;4.82;;
42832;SDS011;64089;51.478;5.692;2024-02-14T07:25:51;11.23;;;4.47;;
42832;SDS011;64089;51.478;5.692;2024-02-14T07:28:16;11.20;;;4.65;;
42832;SDS011;64089;51.478;5.692;2024-02-14T07:30:42;7.22;;;4.55;;
42832;SDS011;64089;51.478;5.692;2024-02-14T07:33:08;10.77;;;5.45;;
42832;SDS011;64089;51.478;5.692;2024-02-14T07:35:34;7.68;;;4.88;;
42832;SDS011;64089;51.478;5.692;2024-02-14T07:38:01;8.77;;;5.18;;
42832;SDS011;64089;51.478;5.692;2024-02-14T07:40:27;9.20;;;5.25;;
42832;SDS011;64089;51.478;5.692;2024-02-14T07:42:55;7.32;;;4.28;;
42832;SDS011;64089;51.478;5.692;2024-02-14T07:45:21;9.10;;;4.20;;
42832;SDS011;64089;51.478;5.692;2024-02-14T07:47:48;13.00;;;5.20;;
42832;SDS011;64089;51.478;5.692;2024-02-14T07:50:15;10.05;;;5.13;;
42832;SDS011;64089;51.478;5.692;2024-02-14T07:52:41;10.55;;;4.78;;
42832;SDS011;64089;51.478;5.692;2024-02-14T07:55:08;11.02;;;4.95;;
42832;SDS011;64089;51.478;5.692;2024-02-14T07:57:37;14.23;;;5.05;;
42832;SDS011;64089;51.478;5.692;2024-02-14T08:00:04;11.02;;;4.70;;
42832;SDS011;64089;51.478;5.692;2024-02-14T08:02:30;7.60;;;5.28;;
42832;SDS011;64089;51.478;5.692;2024-02-14T08:04:56;9.50;;;4.55;;
42832;SDS011;64089;51.478;5.692;2024-02-14T08:07:22;8.38;;;5.22;;
42832;SDS011;64089;51.478;5.692;2024-02-14T08:09:47;13.15;;;4.85;;
42832;SDS011;64089;51.478;5.692;2024-02-14T08:12:13;10.85;;;4.75;;
42832;SDS011;64089;51.478;5.692;2024-02-14T08:14:38;6.28;;;4.45;;
42832;SDS011;64089;51.478;5.692;2024-02-14T08:17:04;8.25;;;4.55;;
42832;SDS011;64089;51.478;5.692;2024-02-14T08:19:30;9.60;;;5.07;;
42832;SDS011;64089;51.478;5.692;2024-02-14T08:21:55;10.90;;;5.13;;
42832;SDS011;64089;51.478;5.692;2024-02-14T08:24:26;12.57;;;5.05;;
42832;SDS011;64089;51.478;5.692;2024-02-14T08:26:52;12.30;;;5.03;;
42832;SDS011;64089;51.478;5.692;2024-02-14T08:29:18;7.18;;;4.63;;
42832;SDS011;64089;51.478;5.692;2024-02-14T08:31:44;15.98;;;5.60;;
42832;SDS011;64089;51.478;5.692;2024-02-14T08:34:10;9.30;;;5.20;;
42832;SDS011;64089;51.478;5.692;2024-02-14T08:36:35;10.57;;;5.25;;
42832;SDS011;64089;51.478;5.692;2024-02-14T08:39:08;10.48;;;4.32;;
42832;SDS011;64089;51.478;5.692;2024-02-14T08:41:35;8.05;;;4.47;;
42832;SDS011;64089;51.478;5.692;2024-02-14T08:44:05;10.23;;;4.47;;
42832;SDS011;64089;51.478;5.692;2024-02-14T08:46:31;13.07;;;4.70;;
42832;SDS011;64089;51.478;5.692;2024-02-14T08:48:56;10.13;;;4.40;;
42832;SDS011;64089;51.478;5.692;2024-02-14T08:51:24;7.10;;;4.03;;
42832;SDS011;64089;51.478;5.692;2024-02-14T08:53:49;5.72;;;3.90;;
42832;SDS011;64089;51.478;5.692;2024-02-14T08:56:19;9.30;;;4.50;;
42832;SDS011;64089;51.478;5.692;2024-02-14T08:58:46;21.35;;;8.65;;
42832;SDS011;64089;51.478;5.692;2024-02-14T09:01:11;23.23;;;9.18;;
42832;SDS011;64089;51.478;5.692;2024-02-14T09:03:38;30.23;;;13.38;;
42832;SDS011;64089;51.478;5.692;2024-02-14T09:06:03;26.50;;;9.85;;
42832;SDS011;64089;51.478;5.692;2024-02-14T09:08:29;25.00;;;12.55;;
42832;SDS011;64089;51.478;5.692;2024-02-14T09:10:56;11.70;;;4.72;;
42832;SDS011;64089;51.478;5.692;2024-02-14T09:13:22;6.75;;;4.00;;
42832;SDS011;64089;51.478;5.692;2024-02-14T09:15:48;12.55;;;4.03;;
42832;SDS011;64089;51.478;5.692;2024-02-14T09:18:15;14.55;;;4.43;;
42832;SDS011;64089;51.478;5.692;2024-02-14T09:20:43;7.43;;;3.92;;
42832;SDS011;64089;51.478;5.692;2024-02-14T09:23:11;8.02;;;3.53;;
42832;SDS011;64089;51.478;5.692;2024-02-14T09:25:38;7.47;;;4.50;;
42832;SDS011;64089;51.478;5.692;2024-02-14T09:28:04;9.13;;;3.58;;
42832;SDS011;64089;51.478;5.692;2024-02-14T09:30:31;6.85;;;3.95;;
42832;SDS011;64089;51.478;5.692;2024-02-14T09:32:57;7.68;;;3.75;;
42832;SDS011;64089;51.478;5.692;2024-02-14T09:35:23;8.95;;;3.53;;
42832;SDS011;64089;51.478;5.692;2024-02-14T09:37:49;13.07;;;4.00;;
42832;SDS011;64089;51.478;5.692;2024-02-14T09:40:15;11.60;;;3.45;;
42832;SDS011;64089;51.478;5.692;2024-02-14T09:42:43;6.38;;;3.42;;
42832;SDS011;64089;51.478;5.692;2024-02-14T09:45:14;4.80;;;3.50;;
42832;SDS011;64089;51.478;5.692;2024-02-14T09:47:40;7.35;;;3.78;;
42832;SDS011;64089;51.478;5.692;2024-02-14T09:50:07;7.10;;;3.75;;
42832;SDS011;64089;51.478;5.692;2024-02-14T09:52:34;9.00;;;4.05;;
42832;SDS011;64089;51.478;5.692;2024-02-14T09:55:03;10.85;;;4.10;;
42832;SDS011;64089;51.478;5.692;2024-02-14T09:57:30;11.95;;;3.70;;
42832;SDS011;64089;51.478;5.692;2024-02-14T09:59:56;10.73;;;3.67;;
42832;SDS011;64089;51.478;5.692;2024-02-14T10:02:25;6.03;;;3.58;;
42832;SDS011;64089;51.478;5.692;2024-02-14T10:04:51;9.50;;;2.75;;
42832;SDS011;64089;51.478;5.692;2024-02-14T10:07:17;6.05;;;3.00;;
42832;SDS011;64089;51.478;5.692;2024-02-14T10:09:43;6.45;;;3.10;;
42832;SDS011;64089;51.478;5.692;2024-02-14T10:12:09;9.13;;;3.85;;
42832;SDS011;64089;51.478;5.692;2024-02-14T10:14:38;7.95;;;4.10;;
42832;SDS011;64089;51.478;5.692;2024-02-14T10:17:04;6.60;;;3.20;;
42832;SDS011;64089;51.478;5.692;2024-02-14T10:19:30;12.00;;;5.63;;
42832;SDS011;64089;51.478;5.692;2024-02-14T10:21:58;14.93;;;6.45;;
42832;SDS011;64089;51.478;5.692;2024-02-14T10:24:29;33.55;;;13.48;;
42832;SDS011;64089;51.478;5.692;2024-02-14T10:26:56;32.00;;;14.48;;
42832;SDS011;64089;51.478;5.692;2024-02-14T10:29:24;7.63;;;4.03;;
42832;SDS011;64089;51.478;5.692;2024-02-14T10:31:50;4.28;;;3.05;;
42832;SDS011;64089;51.478;5.692;2024-02-14T10:34:16;5.22;;;3.25;;
42832;SDS011;64089;51.478;5.692;2024-02-14T10:36:45;4.88;;;2.85;;
42832;SDS011;64089;51.478;5.692;2024-02-14T10:39:11;7.90;;;2.45;;
42832;SDS011;64089;51.478;5.692;2024-02-14T10:41:37;4.13;;;2.33;;
42832;SDS011;64089;51.478;5.692;2024-02-14T10:44:03;4.35;;;2.60;;
42832;SDS011;64089;51.478;5.692;2024-02-14T10:46:33;4.35;;;2.65;;
42832;SDS011;64089;51.478;5.692;2024-02-14T10:49:05;5.18;;;3.30;;
42832;SDS011;64089;51.478;5.692;2024-02-14T10:51:33;5.20;;;3.38;;
42832;SDS011;64089;51.478;5.692;2024-02-14T10:54:03;5.95;;;3.00;;
42832;SDS011;64089;51.478;5.692;2024-02-14T10:56:34;4.22;;;2.60;;
42832;SDS011;64089;51.478;5.692;2024-02-14T10:59:02;4.80;;;2.80;;
42832;SDS011;64089;51.478;5.692;2024-02-14T11:01:29;6.10;;;2.58;;
42832;SDS011;64089;51.478;5.692;2024-02-14T11:03:58;6.07;;;3.20;;
42832;SDS011;64089;51.478;5.692;2024-02-14T11:06:25;5.90;;;2.33;;
42832;SDS011;64089;51.478;5.692;2024-02-14T11:08:58;5.70;;;2.95;;
42832;SDS011;64089;51.478;5.692;2024-02-14T11:11:29;3.92;;;2.50;;
42832;SDS011;64089;51.478;5.692;2024-02-14T11:13:58;4.45;;;2.70;;
42832;SDS011;64089;51.478;5.692;2024-02-14T11:16:27;5.68;;;2.88;;
42832;SDS011;64089;51.478;5.692;2024-02-14T11:19:15;6.20;;;2.25;;
42832;SDS011;64089;51.478;5.692;2024-02-14T11:21:45;5.18;;;2.33;;
42832;SDS011;64089;51.478;5.692;2024-02-14T11:24:13;5.28;;;2.13;;
42832;SDS011;64089;51.478;5.692;2024-02-14T11:29:14;10.27;;;5.53;;
42832;SDS011;64089;51.478;5.692;2024-02-14T11:31:41;11.23;;;6.47;;
42832;SDS011;64089;51.478;5.692;2024-02-14T11:34:08;11.98;;;6.32;;
42832;SDS011;64089;51.478;5.692;2024-02-14T11:36:38;20.75;;;10.13;;
42832;SDS011;64089;51.478;5.692;2024-02-14T11:39:06;21.25;;;10.48;;
42832;SDS011;64089;51.478;5.692;2024-02-14T11:41:33;3.00;;;2.20;;
42832;SDS011;64089;51.478;5.692;2024-02-14T11:44:02;3.65;;;2.22;;
42832;SDS011;64089;51.478;5.692;2024-02-14T11:46:30;3.53;;;2.05;;
42832;SDS011;64089;51.478;5.692;2024-02-14T11:48:56;3.17;;;1.70;;
42832;SDS011;64089;51.478;5.692;2024-02-14T11:51:22;2.40;;;1.50;;
42832;SDS011;64089;51.478;5.692;2024-02-14T11:53:48;3.72;;;2.58;;
42832;SDS011;64089;51.478;5.692;2024-02-14T11:56:14;3.72;;;2.08;;
42832;SDS011;64089;51.478;5.692;2024-02-14T11:58:40;2.80;;;2.08;;
42832;SDS011;64089;51.478;5.692;2024-02-14T12:01:06;2.60;;;1.80;;
42832;SDS011;64089;51.478;5.692;2024-02-14T12:03:34;2.78;;;1.80;;
42832;SDS011;64089;51.478;5.692;2024-02-14T12:06:00;3.53;;;2.33;;
42832;SDS011;64089;51.478;5.692;2024-02-14T12:08:27;2.92;;;2.40;;
42832;SDS011;64089;51.478;5.692;2024-02-14T12:10:53;6.30;;;2.72;;
42832;SDS011;64089;51.478;5.692;2024-02-14T12:13:21;4.18;;;2.58;;
42832;SDS011;64089;51.478;5.692;2024-02-14T12:15:48;4.63;;;2.50;;
42832;SDS011;64089;51.478;5.692;2024-02-14T12:18:16;2.92;;;2.17;;
42832;SDS011;64089;51.478;5.692;2024-02-14T12:20:45;4.05;;;2.63;;
42832;SDS011;64089;51.478;5.692;2024-02-14T12:23:14;4.22;;;2.75;;
42832;SDS011;64089;51.478;5.692;2024-02-14T12:25:44;4.75;;;2.22;;
42832;SDS011;64089;51.478;5.692;2024-02-14T12:28:16;2.47;;;1.80;;
42832;SDS011;64089;51.478;5.692;2024-02-14T12:30:43;2.60;;;1.77;;
42832;SDS011;64089;51.478;5.692;2024-02-14T12:33:17;3.45;;;2.40;;
42832;SDS011;64089;51.478;5.692;2024-02-14T12:35:49;3.17;;;2.33;;
42832;SDS011;64089;51.478;5.692;2024-02-14T12:38:15;2.83;;;2.17;;
42832;SDS011;64089;51.478;5.692;2024-02-14T12:40:42;5.07;;;2.53;;
42832;SDS011;64089;51.478;5.692;2024-02-14T12:43:09;2.78;;;2.00;;
42832;SDS011;64089;51.478;5.692;2024-02-14T12:45:41;2.47;;;1.73;;
42832;SDS011;64089;51.478;5.692;2024-02-14T12:48:07;4.18;;;1.92;;
42832;SDS011;64089;51.478;5.692;2024-02-14T12:50:35;3.10;;;1.90;;
42832;SDS011;64089;51.478;5.692;2024-02-14T12:53:02;2.42;;;1.65;;
42832;SDS011;64089;51.478;5.692;2024-02-14T12:55:32;2.25;;;1.80;;
42832;SDS011;64089;51.478;5.692;2024-02-14T12:57:57;2.97;;;1.70;;
42832;SDS011;64089;51.478;5.692;2024-02-14T13:00:23;4.43;;;2.20;;
42832;SDS011;64089;51.478;5.692;2024-02-14T13:02:49;1.65;;;1.50;;
42832;SDS011;64089;51.478;5.692;2024-02-14T13:05:16;2.53;;;1.35;;
42832;SDS011;64089;51.478;5.692;2024-02-14T13:07:42;1.95;;;1.60;;
42832;SDS011;64089;51.478;5.692;2024-02-14T13:10:08;3.00;;;1.40;;
42832;SDS011;64089;51.478;5.692;2024-02-14T13:12:37;2.70;;;1.77;;
42832;SDS011;64089;51.478;5.692;2024-02-14T13:15:04;1.67;;;1.10;;
42832;SDS011;64089;51.478;5.692;2024-02-14T13:17:30;2.95;;;1.80;;
42832;SDS011;64089;51.478;5.692;2024-02-14T13:19:56;1.73;;;1.23;;
42832;SDS011;64089;51.478;5.692;2024-02-14T13:22:22;2.67;;;1.10;;
42832;SDS011;64089;51.478;5.692;2024-02-14T13:24:48;3.42;;;1.75;;
42832;SDS011;64089;51.478;5.692;2024-02-14T13:27:13;2.08;;;1.38;;
42832;SDS011;64089;51.478;5.692;2024-02-14T13:29:39;2.05;;;1.40;;
42832;SDS011;64089;51.478;5.692;2024-02-14T13:32:05;2.70;;;1.80;;
42832;SDS011;64089;51.478;5.692;2024-02-14T13:34:32;1.75;;;1.20;;
42832;SDS011;64089;51.478;5.692;2024-02-14T13:36:58;1.90;;;1.40;;
42832;SDS011;64089;51.478;5.692;2024-02-14T13:39:24;3.78;;;1.30;;
42832;SDS011;64089;51.478;5.692;2024-02-14T13:41:50;1.40;;;0.95;;
42832;SDS011;64089;51.478;5.692;2024-02-14T13:44:17;2.55;;;1.23;;
42832;SDS011;64089;51.478;5.692;2024-02-14T13:46:43;1.65;;;1.40;;
42832;SDS011;64089;51.478;5.692;2024-02-14T13:49:10;1.90;;;1.10;;
42832;SDS011;64089;51.478;5.692;2024-02-14T13:51:37;0.90;;;0.75;;
42832;SDS011;64089;51.478;5.692;2024-02-14T13:54:03;1.48;;;1.00;;
42832;SDS011;64089;51.478;5.692;2024-02-14T13:56:29;1.73;;;1.08;;
42832;SDS011;64089;51.478;5.692;2024-02-14T13:58:55;1.08;;;0.98;;
42832;SDS011;64089;51.478;5.692;2024-02-14T14:01:20;1.92;;;1.27;;
42832;SDS011;64089;51.478;5.692;2024-02-14T14:03:46;1.00;;;0.82;;
42832;SDS011;64089;51.478;5.692;2024-02-14T14:06:13;1.65;;;0.85;;
42832;SDS011;64089;51.478;5.692;2024-02-14T14:08:39;3.55;;;1.23;;
42832;SDS011;64089;51.478;5.692;2024-02-14T14:11:04;2.80;;;0.90;;
42832;SDS011;64089;51.478;5.692;2024-02-14T14:13:30;1.10;;;1.00;;
42832;SDS011;64089;51.478;5.692;2024-02-14T14:15:58;8.75;;;1.58;;
42832;SDS011;64089;51.478;5.692;2024-02-14T14:18:24;1.30;;;1.20;;
42832;SDS011;64089;51.478;5.692;2024-02-14T14:20:50;2.13;;;1.40;;
42832;SDS011;64089;51.478;5.692;2024-02-14T14:23:16;1.65;;;1.33;;
42832;SDS011;64089;51.478;5.692;2024-02-14T14:25:41;1.92;;;1.20;;
42832;SDS011;64089;51.478;5.692;2024-02-14T14:28:07;1.88;;;1.40;;
42832;SDS011;64089;51.478;5.692;2024-02-14T14:30:34;1.55;;;1.20;;
42832;SDS011;64089;51.478;5.692;2024-02-14T14:33:00;1.88;;;1.45;;
42832;SDS011;64089;51.478;5.692;2024-02-14T14:35:27;1.90;;;1.38;;
42832;SDS011;64089;51.478;5.692;2024-02-14T14:37:53;2.72;;;1.80;;
42832;SDS011;64089;51.478;5.692;2024-02-14T14:40:19;2.60;;;1.77;;
42832;SDS011;64089;51.478;5.692;2024-02-14T14:42:46;2.30;;;1.65;;
42832;SDS011;64089;51.478;5.692;2024-02-14T14:45:12;2.90;;;1.77;;